createdAt,value
2019-02-11T00:01:00.110Z,4.45
2019-02-11T00:04:15.615Z,4.47
2019-02-11T00:07:31.170Z,4.49
2019-02-11T00:10:46.741Z,4.54
2019-02-11T00:14:02.630Z,4.58
2019-02-11T00:17:18.154Z,4.60
2019-02-11T00:20:33.507Z,4.64
2019-02-11T00:23:48.659Z,4.66
2019-02-11T00:27:03.959Z,4.71
2019-02-11T00:30:19.371Z,4.73
2019-02-11T00:33:34.610Z,4.69
2019-02-11T00:36:49.965Z,4.74
2019-02-11T00:40:05.428Z,4.73
2019-02-11T00:43:20.873Z,4.68
2019-02-11T00:50:06.431Z,4.74
2019-02-11T00:53:21.873Z,4.65
2019-02-11T00:56:37.740Z,4.65
2019-02-11T00:59:53.092Z,4.59
2019-02-11T01:03:08.347Z,4.71
2019-02-11T01:06:23.801Z,4.58
2019-02-11T01:09:39.594Z,4.56
2019-02-11T01:12:54.810Z,4.59
2019-02-11T01:16:10.281Z,4.67
2019-02-11T01:19:25.743Z,4.63
2019-02-11T01:22:41.282Z,4.58
2019-02-11T01:25:56.835Z,4.61
2019-02-11T01:29:12.191Z,4.58
2019-02-11T01:32:27.666Z,4.63
2019-02-11T01:35:43.118Z,4.60
2019-02-11T01:38:58.222Z,4.72
2019-02-11T01:42:13.615Z,4.66
2019-02-11T01:45:29.059Z,4.61
2019-02-11T01:48:45.001Z,4.63
2019-02-11T01:52:00.074Z,4.58
2019-02-11T01:55:15.218Z,4.66
2019-02-11T01:58:30.686Z,4.72
2019-02-11T02:01:46.154Z,4.68
2019-02-11T02:05:01.386Z,4.72
2019-02-11T02:08:16.735Z,4.83
2019-02-11T02:11:32.186Z,4.79
2019-02-11T02:14:47.552Z,4.72
2019-02-11T02:18:03.102Z,4.72
2019-02-11T02:21:18.962Z,4.69
2019-02-11T02:24:35.534Z,4.76
2019-02-11T02:27:50.694Z,4.82
2019-02-11T02:31:06.250Z,4.80
2019-02-11T02:34:22.404Z,4.81
2019-02-11T02:37:38.242Z,4.80
2019-02-11T02:40:53.742Z,4.74
2019-02-11T02:44:08.996Z,4.63
2019-02-11T02:47:23.984Z,4.61
2019-02-11T02:50:39.059Z,4.54
2019-02-11T02:53:54.442Z,4.64
2019-02-11T02:57:09.904Z,4.64
2019-02-11T03:00:25.269Z,4.60
2019-02-11T03:03:41.587Z,4.52
2019-02-11T03:06:56.773Z,4.53
2019-02-11T03:10:12.307Z,4.59
2019-02-11T03:13:27.485Z,4.60
2019-02-11T03:16:42.726Z,4.57
2019-02-11T03:19:58.185Z,4.58
2019-02-11T03:23:13.740Z,4.50
2019-02-11T03:26:29.207Z,4.51
2019-02-11T03:29:44.655Z,4.39
2019-02-11T03:33:00.212Z,4.38
2019-02-11T03:36:15.675Z,4.37
2019-02-11T03:39:30.797Z,4.15
2019-02-11T03:42:46.019Z,4.15
2019-02-11T03:46:01.328Z,4.24
2019-02-11T03:49:17.956Z,4.34
2019-02-11T03:52:33.759Z,4.34
2019-02-11T03:55:49.215Z,4.24
2019-02-11T03:59:04.973Z,4.33
2019-02-11T04:02:20.538Z,4.31
2019-02-11T04:05:35.907Z,4.33
2019-02-11T04:08:51.453Z,4.24
2019-02-11T04:12:06.647Z,4.33
2019-02-11T04:15:22.412Z,4.32
2019-02-11T04:18:37.733Z,4.32
2019-02-11T04:22:18.442Z,4.34
2019-02-11T04:25:33.795Z,4.31
2019-02-11T04:28:49.253Z,4.27
2019-02-11T04:32:04.493Z,4.27
2019-02-11T04:35:19.757Z,4.16
2019-02-11T04:38:35.003Z,4.20
2019-02-11T04:41:50.262Z,4.33
2019-02-11T04:45:05.402Z,4.26
2019-02-11T04:48:21.496Z,4.32
2019-02-11T04:51:36.827Z,4.35
2019-02-11T04:54:52.452Z,4.28
2019-02-11T04:58:07.747Z,4.27
2019-02-11T05:01:23.200Z,4.35
2019-02-11T05:04:39.334Z,4.37
2019-02-11T05:07:54.727Z,4.34
2019-02-11T05:11:09.863Z,4.34
2019-02-11T05:14:25.045Z,4.33
2019-02-11T05:17:41.120Z,4.44
2019-02-11T05:20:56.209Z,4.37
2019-02-11T05:24:11.389Z,4.42
2019-02-11T05:27:26.739Z,4.46
2019-02-11T05:30:41.881Z,4.50
2019-02-11T05:33:57.481Z,4.45
2019-02-11T05:37:12.918Z,4.43
2019-02-11T05:40:28.364Z,4.43
2019-02-11T05:43:43.702Z,4.40
2019-02-11T05:46:59.492Z,4.23
2019-02-11T05:50:14.929Z,4.20
2019-02-11T05:53:30.374Z,4.14
2019-02-11T05:56:45.775Z,4.15
2019-02-11T06:00:01.209Z,4.06
2019-02-11T06:03:16.304Z,4.02
2019-02-11T06:06:31.799Z,3.93
2019-02-11T06:09:47.252Z,3.97
2019-02-11T06:13:02.595Z,4.02
2019-02-11T06:16:18.063Z,3.99
2019-02-11T06:19:33.233Z,3.93
2019-02-11T06:22:48.760Z,3.92
2019-02-11T06:26:04.314Z,3.86
2019-02-11T06:29:19.871Z,3.84
2019-02-11T06:32:35.327Z,3.82
2019-02-11T06:35:50.584Z,3.79
2019-02-11T06:39:05.999Z,3.73
2019-02-11T06:42:22.147Z,3.70
2019-02-11T06:45:38.063Z,3.73
2019-02-11T06:48:53.630Z,3.84
2019-02-11T06:52:09.496Z,3.76
2019-02-11T06:55:25.675Z,3.79
2019-02-11T06:58:41.041Z,3.89
2019-02-11T07:01:56.578Z,3.85
2019-02-11T07:05:12.036Z,3.90
2019-02-11T07:08:27.313Z,3.90
2019-02-11T07:11:43.364Z,3.98
2019-02-11T07:14:58.934Z,3.98
2019-02-11T07:18:14.263Z,3.96
2019-02-11T07:21:29.412Z,3.92
2019-02-11T07:24:44.763Z,4.00
2019-02-11T07:27:59.912Z,4.03
2019-02-11T07:31:15.276Z,3.97
2019-02-11T07:34:30.823Z,4.06
2019-02-11T07:37:46.378Z,4.15
2019-02-11T07:41:01.951Z,4.16
2019-02-11T07:44:20.818Z,4.19
2019-02-11T07:47:36.124Z,4.26
2019-02-11T07:50:52.048Z,4.20
2019-02-11T07:54:07.447Z,4.14
2019-02-11T07:57:22.797Z,4.20
2019-02-11T08:00:38.256Z,4.12
2019-02-11T08:03:53.712Z,3.95
2019-02-11T08:07:09.169Z,3.91
2019-02-11T08:10:24.653Z,3.99
2019-02-11T08:13:39.984Z,4.11
2019-02-11T08:16:55.237Z,4.27
2019-02-11T08:20:10.796Z,4.36
2019-02-11T08:23:26.339Z,4.54
2019-02-11T08:26:42.261Z,4.51
2019-02-11T08:29:58.367Z,4.51
2019-02-11T08:33:13.627Z,4.43
2019-02-11T08:36:29.083Z,4.55
2019-02-11T08:39:44.660Z,4.57
2019-02-11T08:42:59.996Z,4.73
2019-02-11T08:46:15.350Z,4.79
2019-02-11T08:49:31.119Z,4.80
2019-02-11T08:52:46.569Z,4.73
2019-02-11T08:56:03.381Z,4.72
2019-02-11T08:59:19.363Z,4.96
2019-02-11T09:02:34.868Z,5.17
2019-02-11T09:05:50.202Z,5.30
2019-02-11T09:09:05.700Z,5.23
2019-02-11T09:12:20.934Z,5.25
2019-02-11T09:15:36.698Z,5.40
2019-02-11T09:18:51.956Z,5.45
2019-02-11T09:22:08.314Z,5.41
2019-02-11T09:25:23.885Z,5.51
2019-02-11T09:28:39.135Z,5.59
2019-02-11T09:31:55.251Z,5.65
2019-02-11T09:35:10.518Z,5.76
2019-02-11T09:38:26.515Z,6.05
2019-02-11T09:41:41.883Z,6.43
2019-02-11T09:44:57.026Z,6.72
2019-02-11T09:48:13.030Z,6.58
2019-02-11T09:51:30.403Z,6.38
2019-02-11T09:54:45.755Z,6.24
2019-02-11T09:58:01.206Z,6.40
2019-02-11T10:01:16.559Z,6.72
2019-02-11T10:04:32.740Z,6.69
2019-02-11T10:07:47.960Z,7.00
2019-02-11T10:11:03.446Z,7.23
2019-02-11T10:14:19.553Z,7.00
2019-02-11T10:17:35.069Z,7.27
2019-02-11T10:20:50.511Z,7.46
2019-02-11T10:24:06.082Z,7.29
2019-02-11T10:27:20.805Z,7.12
2019-02-11T10:30:36.797Z,6.72
2019-02-11T10:33:52.217Z,6.30
2019-02-11T10:37:08.066Z,6.22
2019-02-11T10:40:23.668Z,6.32
2019-02-11T10:43:39.154Z,6.26
2019-02-11T10:46:56.974Z,6.48
2019-02-11T10:50:14.978Z,6.55
2019-02-11T10:53:30.427Z,6.61
2019-02-11T10:56:46.135Z,6.71
2019-02-11T11:00:01.494Z,6.71
2019-02-11T11:03:16.850Z,7.02
2019-02-11T11:06:30.567Z,7.66
2019-02-11T11:09:47.332Z,8.20
2019-02-11T11:13:03.203Z,8.64
2019-02-11T11:16:16.821Z,8.98
2019-02-11T11:19:30.378Z,9.26
2019-02-11T11:22:44.250Z,9.20
2019-02-11T11:25:58.053Z,9.54
2019-02-11T11:29:11.753Z,10.34
2019-02-11T11:32:25.435Z,9.91
2019-02-11T11:35:39.157Z,9.11
2019-02-11T11:38:52.655Z,8.49
2019-02-11T11:42:06.206Z,7.93
2019-02-11T11:45:19.984Z,7.59
2019-02-11T11:48:33.477Z,7.31
2019-02-11T11:51:47.286Z,7.39
2019-02-11T11:55:00.890Z,7.57
2019-02-11T11:58:14.618Z,7.78
2019-02-11T12:01:28.101Z,7.92
2019-02-11T12:04:41.735Z,8.08
2019-02-11T12:07:55.322Z,7.78
2019-02-11T12:11:08.815Z,7.59
2019-02-11T12:14:22.376Z,7.69
2019-02-11T12:17:35.982Z,8.23
2019-02-11T12:20:49.734Z,8.25
2019-02-11T12:24:03.309Z,7.89
2019-02-11T12:27:16.833Z,7.93
2019-02-11T12:30:30.741Z,7.92
2019-02-11T12:33:44.912Z,7.63
2019-02-11T12:36:58.627Z,7.55
2019-02-11T12:40:12.443Z,7.40
2019-02-11T12:43:26.001Z,7.34
2019-02-11T12:46:39.493Z,7.27
2019-02-11T12:49:53.423Z,7.32
2019-02-11T12:53:07.035Z,7.34
2019-02-11T12:56:20.708Z,7.80
2019-02-11T12:59:34.280Z,8.29
2019-02-11T13:02:48.003Z,8.64
2019-02-11T13:06:02.092Z,7.87
2019-02-11T13:09:15.963Z,7.32
2019-02-11T13:12:29.597Z,7.98
2019-02-11T13:15:59.839Z,8.51
2019-02-11T13:18:58.703Z,8.67
2019-02-11T13:22:12.237Z,8.77
2019-02-11T13:25:26.070Z,8.97
2019-02-11T13:28:39.646Z,9.41
2019-02-11T13:31:53.242Z,9.33
2019-02-11T13:35:07.558Z,8.97
2019-02-11T13:38:21.184Z,8.71
2019-02-11T13:41:34.869Z,8.22
2019-02-11T13:44:48.356Z,8.06
2019-02-11T13:48:02.043Z,7.95
2019-02-11T13:51:15.741Z,7.94
2019-02-11T13:54:29.258Z,7.61
2019-02-11T13:57:43.193Z,7.52
2019-02-11T14:00:56.909Z,7.45
2019-02-11T14:04:10.703Z,7.37
2019-02-11T14:07:25.577Z,7.18
2019-02-11T14:10:41.033Z,7.14
2019-02-11T14:14:02.806Z,7.22
2019-02-11T14:17:32.340Z,7.16
2019-02-11T14:21:05.903Z,7.26
2019-02-11T14:24:19.671Z,7.34
2019-02-11T14:27:33.481Z,7.36
2019-02-11T14:30:47.375Z,7.26
2019-02-11T14:34:00.997Z,7.05
2019-02-11T14:37:14.704Z,7.12
2019-02-11T14:40:30.475Z,7.16
2019-02-11T14:43:44.677Z,7.34
2019-02-11T14:46:58.717Z,7.44
2019-02-11T14:50:12.658Z,7.29
2019-02-11T14:53:26.261Z,7.14
2019-02-11T14:56:39.824Z,6.93
2019-02-11T14:59:53.668Z,6.86
2019-02-11T15:03:07.300Z,6.83
2019-02-11T15:06:21.092Z,6.90
2019-02-11T15:09:34.811Z,7.11
2019-02-11T15:12:48.878Z,7.19
2019-02-11T15:16:02.680Z,7.20
2019-02-11T15:19:16.206Z,7.21
2019-02-11T15:22:30.017Z,7.10
2019-02-11T15:25:43.755Z,6.98
2019-02-11T15:28:57.466Z,6.77
2019-02-11T15:32:11.226Z,6.73
2019-02-11T15:35:24.976Z,6.70
2019-02-11T15:38:38.463Z,6.71
2019-02-11T15:41:52.207Z,6.79
2019-02-11T15:45:07.895Z,6.78
2019-02-11T15:48:21.591Z,6.81
2019-02-11T15:51:35.511Z,6.63
2019-02-11T15:54:49.120Z,6.56
2019-02-11T15:58:02.911Z,6.58
2019-02-11T16:01:16.434Z,6.43
2019-02-11T16:04:30.220Z,6.46
2019-02-11T16:07:44.266Z,6.51
2019-02-11T16:11:01.454Z,6.43
2019-02-11T16:14:13.692Z,6.44
2019-02-11T16:17:27.496Z,6.38
2019-02-11T16:20:41.259Z,6.32
2019-02-11T16:23:55.126Z,6.33
2019-02-11T16:27:09.391Z,6.19
2019-02-11T16:30:23.231Z,6.18
2019-02-11T16:33:36.966Z,6.12
2019-02-11T16:36:50.614Z,6.11
2019-02-11T16:40:06.469Z,6.02
2019-02-11T16:43:20.070Z,6.02
2019-02-11T16:46:33.570Z,6.00
2019-02-11T16:49:47.570Z,6.08
2019-02-11T16:53:01.393Z,5.98
2019-02-11T16:56:15.361Z,6.01
2019-02-11T16:59:29.572Z,6.15
2019-02-11T17:02:43.929Z,6.06
2019-02-11T17:05:58.032Z,6.07
2019-02-11T17:09:12.275Z,6.01
2019-02-11T17:12:26.078Z,6.07
2019-02-11T17:15:47.277Z,6.04
2019-02-11T17:19:09.469Z,5.96
2019-02-11T17:22:20.295Z,6.12
2019-02-11T17:25:34.067Z,6.08
2019-02-11T17:28:47.996Z,6.18
2019-02-11T17:32:01.877Z,6.26
2019-02-11T17:35:15.772Z,6.28
2019-02-11T17:38:29.709Z,6.31
2019-02-11T17:41:43.274Z,6.32
2019-02-11T17:44:56.968Z,6.21
2019-02-11T17:48:10.552Z,6.17
2019-02-11T17:51:24.247Z,6.08
2019-02-11T17:54:37.839Z,6.10
2019-02-11T17:57:51.431Z,6.06
2019-02-11T18:01:05.100Z,5.91
2019-02-11T18:04:18.555Z,5.90
2019-02-11T18:07:32.264Z,5.80
2019-02-11T18:10:45.906Z,5.85
2019-02-11T18:13:59.826Z,5.70
2019-02-11T18:17:13.296Z,5.43
2019-02-11T18:20:26.995Z,5.17
2019-02-11T18:23:40.686Z,4.97
2019-02-11T18:26:54.143Z,4.81
2019-02-11T18:30:09.122Z,4.92
2019-02-11T18:33:22.587Z,5.04
2019-02-11T18:36:36.064Z,5.11
2019-02-11T18:39:49.766Z,4.98
2019-02-11T18:43:03.331Z,4.96
2019-02-11T18:46:16.778Z,4.97
2019-02-11T18:49:34.543Z,4.93
2019-02-11T18:52:45.955Z,4.93
2019-02-11T18:55:59.355Z,4.66
2019-02-11T18:59:12.987Z,4.69
2019-02-11T19:02:26.452Z,4.71
2019-02-11T19:05:39.902Z,4.68
2019-02-11T19:08:53.372Z,4.51
2019-02-11T19:12:07.192Z,4.52
2019-02-11T19:15:20.978Z,4.54
2019-02-11T19:18:34.443Z,4.56
2019-02-11T19:21:48.136Z,4.63
2019-02-11T19:25:01.953Z,4.68
2019-02-11T19:28:15.457Z,4.58
2019-02-11T19:31:29.435Z,4.57
2019-02-11T19:34:42.899Z,4.61
2019-02-11T19:37:56.470Z,4.51
2019-02-11T19:41:10.267Z,4.53
2019-02-11T19:44:23.729Z,4.50
2019-02-11T19:47:37.219Z,4.42
2019-02-11T19:50:50.682Z,4.35
2019-02-11T19:54:04.936Z,4.31
2019-02-11T19:57:18.710Z,4.31
2019-02-11T20:00:32.509Z,4.28
2019-02-11T20:03:46.336Z,4.27
2019-02-11T20:06:59.814Z,4.29
2019-02-11T20:10:13.787Z,4.31
2019-02-11T20:13:27.474Z,4.29
2019-02-11T20:16:41.025Z,4.22
2019-02-11T20:20:00.169Z,4.14
2019-02-11T20:23:10.051Z,4.06
2019-02-11T20:26:24.009Z,3.97
2019-02-11T20:29:37.704Z,3.85
2019-02-11T20:32:51.491Z,3.67
2019-02-11T20:36:05.192Z,3.56
2019-02-11T20:39:18.994Z,3.37
2019-02-11T20:42:32.675Z,3.13
2019-02-11T20:45:46.135Z,3.07
2019-02-11T20:48:59.837Z,2.98
2019-02-11T20:52:13.401Z,2.87
2019-02-11T20:55:26.853Z,2.76
2019-02-11T20:58:40.764Z,2.61
2019-02-11T21:01:54.218Z,2.41
2019-02-11T21:05:08.152Z,2.30
2019-02-11T21:08:21.864Z,2.11
2019-02-11T21:11:35.566Z,1.95
2019-02-11T21:14:49.267Z,1.92
2019-02-11T21:18:02.715Z,1.92
2019-02-11T21:21:16.169Z,1.83
2019-02-11T21:24:29.625Z,1.80
2019-02-11T21:27:43.427Z,1.80
2019-02-11T21:30:56.884Z,1.76
2019-02-11T21:34:10.390Z,1.62
2019-02-11T21:37:23.790Z,1.59
2019-02-11T21:40:37.246Z,1.56
2019-02-11T21:43:50.688Z,1.53
2019-02-11T21:47:04.144Z,1.41
2019-02-11T21:50:26.079Z,1.35
2019-02-11T21:53:33.069Z,1.28
2019-02-11T21:56:46.968Z,1.17
2019-02-11T22:00:00.669Z,1.13
2019-02-11T22:03:14.215Z,1.13
2019-02-11T22:06:28.009Z,1.08
2019-02-11T22:09:41.715Z,0.92
2019-02-11T22:12:55.523Z,0.83
2019-02-11T22:16:09.231Z,0.73
2019-02-11T22:19:24.784Z,0.74
2019-02-11T22:22:38.736Z,0.73
2019-02-11T22:25:52.416Z,0.70
2019-02-11T22:29:05.864Z,0.66
2019-02-11T22:32:19.315Z,0.66
2019-02-11T22:35:32.755Z,0.59
2019-02-11T22:38:46.310Z,0.49
2019-02-11T22:41:59.859Z,0.54
2019-02-11T22:45:15.542Z,0.54
2019-02-11T22:48:28.999Z,0.53
2019-02-11T22:51:42.686Z,0.57
2019-02-11T22:54:56.371Z,0.43
2019-02-11T22:58:09.825Z,0.44
2019-02-11T23:01:23.579Z,0.44
2019-02-11T23:04:37.025Z,0.40
2019-02-11T23:07:50.695Z,0.37
2019-02-11T23:11:04.243Z,0.36
2019-02-11T23:14:17.703Z,0.40
2019-02-11T23:17:31.161Z,0.41
2019-02-11T23:20:51.746Z,0.43
2019-02-11T23:24:00.112Z,0.38
2019-02-11T23:27:13.893Z,0.37
2019-02-11T23:30:27.812Z,0.34
2019-02-11T23:33:41.600Z,0.33
2019-02-11T23:36:55.148Z,0.27
2019-02-11T23:40:08.817Z,0.30
2019-02-11T23:43:22.613Z,0.25
2019-02-11T23:46:36.155Z,0.18
2019-02-11T23:49:49.628Z,0.08
2019-02-11T23:53:03.286Z,-0.01
2019-02-11T23:56:16.727Z,0.06
2019-02-11T23:59:30.404Z,0.05
